Time;durP1;ratioP1;P1;durP2;ratioP2;P2;SDS_P1;SDS_P2;PMS_P1;PMS_P2;Temp;Humidity;BMP_temperature;BMP_pressure;BME280_temperature;BME280_humidity;BME280_pressure;Samples;Min_cycle;Max_cycle;Signal;HPM_P1;HPM_P2
2022/09/22 00:00:53;;;;;;;5.20;2.90;;;5.90;99.90;;;;;;5056596;28;20029;-74
2022/09/22 00:03:18;;;;;;;4.20;2.22;;;5.90;99.90;;;;;;5058438;28;20044;-71
2022/09/22 00:05:44;;;;;;;5.22;2.25;;;5.90;99.90;;;;;;5062190;28;20074;-75
2022/09/22 00:08:09;;;;;;;4.47;2.53;;;5.80;99.90;;;;;;5055846;28;20440;-73
2022/09/22 00:10:35;;;;;;;4.05;2.50;;;5.80;99.90;;;;;;5057514;28;20047;-75
2022/09/22 00:13:00;;;;;;;3.80;2.50;;;5.80;99.90;;;;;;5062016;28;20029;-73
2022/09/22 00:15:26;;;;;;;5.72;3.00;;;5.80;99.90;;;;;;5060307;28;20036;-74
2022/09/22 00:17:52;;;;;;;4.10;2.80;;;5.70;99.90;;;;;;5056236;28;20693;-73
2022/09/22 00:20:18;;;;;;;3.35;2.50;;;5.70;99.90;;;;;;5054225;28;20754;-71
2022/09/22 00:22:47;;;;;;;4.78;2.55;;;5.70;99.90;;;;;;5054745;28;20022;-73
2022/09/22 00:25:13;;;;;;;6.90;3.00;;;5.70;99.90;;;;;;5059640;28;20392;-74
2022/09/22 00:27:38;;;;;;;5.72;2.50;;;5.60;99.90;;;;;;5053290;28;20030;-72
2022/09/22 00:30:05;;;;;;;3.83;2.70;;;5.60;99.90;;;;;;5056109;28;20031;-73
2022/09/22 00:32:31;;;;;;;3.25;2.42;;;5.50;99.90;;;;;;5059559;28;20020;-74
2022/09/22 00:34:59;;;;;;;4.70;2.63;;;;;;;;;;5040541;28;20030;-74
2022/09/22 00:37:25;;;;;;;4.47;2.47;;;;;;;;;;5039612;28;20541;-73
2022/09/22 00:39:52;;;;;;;6.35;2.83;;;;;;;;;;5037757;28;20057;-74
2022/09/22 00:42:19;;;;;;;3.28;2.47;;;;;;;;;;5039890;28;20045;-71
2022/09/22 00:44:46;;;;;;;3.40;2.80;;;;;;;;;;5032898;28;20037;-71
2022/09/22 00:47:31;;;;;;;4.05;3.00;;;;;;;;;;5033984;28;20083;-74
2022/09/22 00:50:15;;;;;;;2.95;2.30;;;;;;;;;;5033163;28;20505;-74
2022/09/22 00:52:45;;;;;;;5.75;2.78;;;;;;;;;;5039097;28;20119;-73
2022/09/22 00:55:13;;;;;;;6.65;3.17;;;;;;;;;;5051091;28;20039;-72
2022/09/22 00:57:40;;;;;;;3.58;2.60;;;;;;;;;;5040232;28;20025;-74
2022/09/22 01:00:07;;;;;;;4.03;2.55;;;;;;;;;;5034299;28;20037;-74
2022/09/22 01:02:33;;;;;;;4.05;2.67;;;;;;;;;;5032207;28;20490;-74
2022/09/22 01:04:59;;;;;;;3.47;2.33;;;;;;;;;;5043020;28;20036;-72
2022/09/22 01:07:27;;;;;;;4.65;2.45;;;;;;;;;;5044357;28;20108;-74
2022/09/22 01:09:54;;;;;;;5.07;2.40;;;;;;;;;;5034723;28;20048;-74
2022/09/22 01:12:21;;;;;;;5.18;2.75;;;;;;;;;;5030901;28;20356;-71
2022/09/22 01:14:50;;;;;;;4.07;2.70;;;;;;;;;;5032254;28;20029;-74
2022/09/22 01:17:36;;;;;;;3.03;2.35;;;;;;;;;;5044371;28;20075;-71
2022/09/22 01:20:08;;;;;;;6.18;2.78;;;;;;;;;;5039912;28;20049;-73
2022/09/22 01:22:40;;;;;;;3.28;2.25;;;;;;;;;;5031815;28;20382;-74
2022/09/22 01:25:20;;;;;;;3.95;2.80;;;;;;;;;;5033829;28;20021;-73
2022/09/22 01:27:46;;;;;;;;;;;;;;;;;;5033987;28;20466;-75
2022/09/22 01:30:12;;;;;;;4.53;2.78;;;;;;;;;;5050682;28;19909;-75
2022/09/22 01:32:43;;;;;;;5.65;3.08;;;;;;;;;;5038036;28;20018;-73
2022/09/22 01:35:28;;;;;;;5.13;2.83;;;;;;;;;;5034360;28;20137;-72
2022/09/22 01:38:07;;;;;;;6.50;2.80;;;;;;;;;;5038677;28;20486;-75
2022/09/22 01:40:34;;;;;;;4.32;3.17;;;;;;;;;;5032207;28;20099;-73
2022/09/22 01:43:20;;;;;;;5.22;2.65;;;;;;;;;;5047177;28;20017;-74
2022/09/22 01:45:47;;;;;;;5.55;3.03;;;;;;;;;;5037904;28;20037;-74
2022/09/22 01:48:13;;;;;;;5.22;2.90;;;;;;;;;;5049247;28;20389;-73
2022/09/22 01:50:41;;;;;;;3.72;2.75;;;;;;;;;;5043435;28;20013;-74
2022/09/22 01:53:11;;;;;;;7.20;3.53;;;;;;;;;;5034981;28;20088;-74
2022/09/22 01:55:37;;;;;;;5.63;3.53;;;;;;;;;;5031342;28;20492;-74
2022/09/22 01:58:10;;;;;;;3.75;2.50;;;;;;;;;;5048684;28;20036;-76
2022/09/22 02:00:38;;;;;;;4.05;2.92;;;;;;;;;;5032133;28;20064;-75
2022/09/22 02:03:08;;;;;;;5.88;3.00;;;;;;;;;;5031959;28;20025;-75
2022/09/22 02:05:38;;;;;;;5.68;3.60;;;;;;;;;;5037503;28;20099;-74
2022/09/22 02:08:08;;;;;;;6.32;3.58;;;;;;;;;;5035942;28;20398;-75
2022/09/22 02:10:36;;;;;;;8.43;3.20;;;;;;;;;;5046597;28;20029;-74
2022/09/22 02:13:02;;;;;;;4.32;3.35;;;;;;;;;;5049768;28;20025;-75
2022/09/22 02:18:16;;;;;;;4.50;3.22;;;;;;;;;;5031386;28;20036;-74
2022/09/22 02:20:42;;;;;;;10.80;3.90;;;;;;;;;;5041859;28;20059;-76
2022/09/22 02:23:08;;;;;;;6.97;3.67;;;;;;;;;;5050552;28;20024;-74
2022/09/22 02:25:35;;;;;;;5.47;3.45;;;;;;;;;;5040745;28;20065;-74
2022/09/22 02:28:02;;;;;;;4.55;3.50;;;;;;;;;;5036854;28;20017;-74
2022/09/22 02:30:28;;;;;;;6.10;3.45;;;;;;;;;;5030996;28;20053;-74
2022/09/22 02:32:56;;;;;;;5.70;3.25;;;;;;;;;;5031936;28;20030;-75
2022/09/22 02:35:22;;;;;;;4.82;2.83;;;;;;;;;;5035260;28;20022;-71
2022/09/22 02:37:52;;;;;;;5.72;3.28;;;;;;;;;;5045419;28;20033;-75
2022/09/22 02:40:32;;;;;;;4.82;3.42;;;;;;;;;;5038064;28;20080;-75
2022/09/22 02:42:58;;;;;;;5.18;3.05;;;;;;;;;;5050551;28;20036;-75
2022/09/22 02:45:39;;;;;;;4.32;3.17;;;;;;;;;;5047701;28;20136;-73
2022/09/22 02:48:09;;;;;;;4.97;3.53;;;;;;;;;;5044852;28;20044;-74
2022/09/22 02:50:35;;;;;;;5.00;3.05;;;;;;;;;;5030853;28;20075;-74
2022/09/22 02:53:03;;;;;;;4.95;3.28;;;;;;;;;;5031105;28;20029;-73
2022/09/22 02:55:29;;;;;;;6.30;3.38;;;;;;;;;;5040336;28;20096;-73
2022/09/22 02:57:55;;;;;;;5.35;3.72;;;;;;;;;;5047815;28;20099;-74
2022/09/22 03:00:21;;;;;;;6.28;3.63;;;;;;;;;;5041753;28;20033;-72
2022/09/22 03:02:47;;;;;;;5.00;3.67;;;;;;;;;;5050090;28;20025;-72
2022/09/22 03:05:13;;;;;;;6.05;3.92;;;;;;;;;;5039589;28;20104;-74
2022/09/22 03:07:39;;;;;;;6.53;4.00;;;;;;;;;;5043181;28;20029;-73
2022/09/22 03:10:05;;;;;;;5.45;3.80;;;;;;;;;;5048552;28;20036;-73
2022/09/22 03:12:31;;;;;;;6.95;3.80;;;;;;;;;;5049774;28;20082;-73
2022/09/22 03:14:57;;;;;;;4.72;3.08;;;;;;;;;;5050130;28;20032;-74
2022/09/22 03:17:23;;;;;;;5.80;3.78;;;;;;;;;;5048804;28;20389;-71
2022/09/22 03:19:49;;;;;;;6.45;3.95;;;;;;;;;;5041974;28;20053;-73
2022/09/22 03:22:15;;;;;;;7.32;3.75;;;;;;;;;;5034708;28;20049;-74
2022/09/22 03:24:41;;;;;;;5.05;3.53;;;;;;;;;;5030871;28;20103;-73
2022/09/22 03:27:07;;;;;;;4.38;3.20;;;;;;;;;;5039720;28;20025;-72
2022/09/22 03:29:33;;;;;;;3.95;3.35;;;;;;;;;;5037812;28;20116;-74
2022/09/22 03:31:59;;;;;;;5.85;4.13;;;;;;;;;;5048991;28;20021;-73
2022/09/22 03:34:25;;;;;;;5.60;3.58;;;;;;;;;;5044908;28;20006;-70
2022/09/22 03:36:52;;;;;;;6.22;3.72;;;;;;;;;;5059606;28;20029;-74
2022/09/22 03:39:18;;;;;;;6.35;4.22;;;;;;;;;;5072997;28;20053;-73
2022/09/22 03:41:45;;;;;;;7.20;3.63;;;;;;;;;;5060158;28;20034;-73
2022/09/22 03:44:16;;;;;;;4.30;3.38;;;;;;;;;;5035532;28;20537;-72
2022/09/22 03:46:42;;;;;;;5.25;3.85;;;4.20;99.90;;;;;;5038372;28;20048;-73
2022/09/22 03:49:08;;;;;;;4.82;3.45;;;4.10;99.90;;;;;;5051166;28;20072;-73
2022/09/22 03:51:33;;;;;;;4.45;3.50;;;4.00;99.90;;;;;;5043020;28;20031;-73
2022/09/22 03:53:59;;;;;;;6.78;3.90;;;4.00;99.90;;;;;;5037286;28;20426;-71
2022/09/22 03:56:25;;;;;;;5.97;4.30;;;3.90;99.90;;;;;;5034467;28;20037;-72
2022/09/22 03:58:51;;;;;;;4.82;3.65;;;3.90;99.90;;;;;;5040250;28;20051;-74
2022/09/22 04:01:16;;;;;;;5.13;3.63;;;3.90;99.90;;;;;;5034510;28;20033;-73
2022/09/22 04:03:42;;;;;;;6.20;4.13;;;3.80;99.90;;;;;;5033942;28;20044;-76
2022/09/22 04:06:08;;;;;;;4.95;3.88;;;3.80;99.90;;;;;;5038410;28;20025;-76
2022/09/22 04:08:34;;;;;;;6.30;3.60;;;3.80;99.90;;;;;;5052148;28;20039;-76
2022/09/22 04:11:00;;;;;;;5.43;4.00;;;3.80;99.90;;;;;;5038383;28;20473;-76
2022/09/22 04:13:26;;;;;;;7.43;4.60;;;3.80;99.90;;;;;;5040426;28;20060;-73
2022/09/22 04:15:51;;;;;;;9.23;4.93;;;3.80;99.90;;;;;;5038506;28;20025;-73
2022/09/22 04:18:17;;;;;;;7.35;4.85;;;3.70;99.90;;;;;;5042457;28;20036;-72
2022/09/22 04:20:44;;;;;;;7.32;5.13;;;3.70;99.90;;;;;;5034679;28;20053;-71
2022/09/22 04:23:10;;;;;;;9.02;5.30;;;3.70;99.90;;;;;;5033632;28;20463;-72
2022/09/22 04:25:36;;;;;;;9.27;4.88;;;3.70;99.90;;;;;;5034023;28;20077;-75
2022/09/22 04:28:03;;;;;;;8.63;5.05;;;3.70;99.90;;;;;;5046201;28;20036;-75
2022/09/22 04:30:29;;;;;;;8.05;4.97;;;3.70;99.90;;;;;;5048512;28;20406;-74
2022/09/22 04:32:55;;;;;;;5.63;4.68;;;3.70;99.90;;;;;;5041269;28;20018;-77
2022/09/22 04:35:20;;;;;;;8.73;4.43;;;3.70;99.90;;;;;;5036489;28;20033;-73
2022/09/22 04:37:46;;;;;;;6.75;4.65;;;3.60;99.90;;;;;;5043690;28;20029;-75
2022/09/22 04:40:11;;;;;;;8.32;4.97;;;3.60;99.90;;;;;;5044734;28;20092;-75
2022/09/22 04:42:38;;;;;;;10.00;5.50;;;3.60;99.90;;;;;;5047299;28;20083;-76
2022/09/22 04:45:05;;;;;;;7.68;5.35;;;3.60;99.90;;;;;;5051896;28;20086;-75
2022/09/22 04:47:32;;;;;;;8.02;5.45;;;3.60;99.90;;;;;;5044686;28;20029;-74
2022/09/22 04:49:58;;;;;;;9.10;5.72;;;3.60;99.90;;;;;;5046596;28;20025;-75
2022/09/22 04:52:24;;;;;;;8.57;5.70;;;3.60;99.90;;;;;;5033183;28;20065;-72
2022/09/22 04:54:49;;;;;;;7.47;4.82;;;3.60;99.90;;;;;;5058414;28;20059;-75
2022/09/22 04:57:15;;;;;;;7.95;5.55;;;3.60;99.90;;;;;;5061087;28;20129;-74
2022/09/22 04:59:40;;;;;;;9.43;5.18;;;3.70;99.90;;;;;;5058827;28;20099;-74
2022/09/22 05:02:06;;;;;;;9.98;6.00;;;3.70;99.90;;;;;;5062295;28;20056;-74
2022/09/22 05:04:32;;;;;;;9.70;5.55;;;3.70;99.90;;;;;;5061884;28;20025;-74
2022/09/22 05:06:57;;;;;;;7.00;4.97;;;3.70;99.90;;;;;;5050031;28;20028;-74
2022/09/22 05:09:23;;;;;;;6.65;5.00;;;3.70;99.90;;;;;;5061902;28;20029;-74
2022/09/22 05:11:48;;;;;;;6.88;4.45;;;3.70;99.90;;;;;;5061968;28;20028;-73
2022/09/22 05:14:14;;;;;;;8.43;5.07;;;3.70;99.90;;;;;;5059177;28;20032;-74
2022/09/22 05:16:43;;;;;;;11.18;5.07;;;3.60;99.90;;;;;;5056226;28;20108;-73
2022/09/22 05:19:09;;;;;;;8.50;5.93;;;3.60;99.90;;;;;;5060919;28;20048;-72
2022/09/22 05:21:35;;;;;;;9.63;5.68;;;3.70;99.90;;;;;;5054684;28;20516;-73
2022/09/22 05:24:02;;;;;;;8.38;5.60;;;3.70;99.90;;;;;;5044168;28;20072;-73
2022/09/22 05:26:27;;;;;;;7.22;5.88;;;3.70;99.90;;;;;;5046643;28;20374;-70
2022/09/22 05:28:53;;;;;;;11.70;6.88;;;3.80;99.90;;;;;;5034790;28;20040;-74
2022/09/22 05:31:19;;;;;;;10.00;5.65;;;3.90;99.90;;;;;;5034801;28;20061;-75
2022/09/22 05:33:44;;;;;;;7.50;5.55;;;3.90;99.90;;;;;;5032006;28;20544;-74
2022/09/22 05:36:10;;;;;;;9.75;5.90;;;3.80;99.90;;;;;;5038642;28;20084;-75
2022/09/22 05:38:36;;;;;;;10.75;6.43;;;3.80;99.90;;;;;;5041245;28;20037;-72
2022/09/22 05:41:02;;;;;;;7.35;5.30;;;3.90;99.90;;;;;;5037396;28;20029;-75
2022/09/22 05:43:28;;;;;;;8.13;5.35;;;3.90;99.90;;;;;;5051175;28;20131;-68
2022/09/22 05:45:54;;;;;;;10.48;5.93;;;3.90;99.90;;;;;;5051174;28;20500;-75
2022/09/22 05:48:19;;;;;;;13.90;6.10;;;3.90;99.90;;;;;;5040207;28;20030;-76
2022/09/22 05:50:45;;;;;;;7.93;5.85;;;4.00;99.90;;;;;;5037084;28;20025;-74
2022/09/22 05:53:11;;;;;;;12.25;6.57;;;4.10;99.90;;;;;;5046996;28;20635;-77
2022/09/22 05:55:38;;;;;;;9.70;6.32;;;4.20;99.90;;;;;;5049575;28;20037;-78
2022/09/22 05:58:04;;;;;;;11.38;6.00;;;4.30;99.90;;;;;;5046371;28;20032;-76
2022/09/22 06:00:30;;;;;;;10.10;5.65;;;4.40;99.90;;;;;;5035439;28;20424;-72
2022/09/22 06:02:56;;;;;;;18.58;6.07;;;4.50;99.90;;;;;;5044316;28;20029;-77
2022/09/22 06:05:22;;;;;;;8.02;6.47;;;4.60;99.90;;;;;;5036656;28;20459;-77
2022/09/22 06:07:59;;;;;;;12.25;5.43;;;4.70;99.90;;;;;;5038054;28;20093;-77
2022/09/22 06:10:25;;;;;;;10.02;6.15;;;4.80;99.90;;;;;;5034632;28;20033;-76
2022/09/22 06:12:51;;;;;;;8.15;5.72;;;4.90;99.90;;;;;;5034258;28;20199;-77
2022/09/22 06:15:16;;;;;;;8.82;5.45;;;5.00;99.90;;;;;;5036209;28;20449;-75
2022/09/22 06:17:42;;;;;;;10.85;5.55;;;5.10;99.90;;;;;;5033733;28;20022;-76
2022/09/22 06:20:08;;;;;;;11.18;5.50;;;5.10;99.90;;;;;;5034865;28;20050;-76
2022/09/22 06:22:36;;;;;;;7.75;5.43;;;5.20;99.90;;;;;;5045855;28;20556;-76
2022/09/22 06:25:02;;;;;;;9.90;5.97;;;5.30;99.90;;;;;;5034192;28;20029;-76
2022/09/22 06:27:27;;;;;;;9.68;5.70;;;5.40;99.90;;;;;;5037654;28;20061;-71
2022/09/22 06:29:53;;;;;;;8.80;5.78;;;5.50;99.90;;;;;;5036535;28;20072;-76
2022/09/22 06:32:19;;;;;;;7.35;5.45;;;5.60;99.90;;;;;;5033183;28;20038;-76
2022/09/22 06:34:45;;;;;;;8.00;5.60;;;5.60;99.90;;;;;;5041320;28;20036;-75
2022/09/22 06:37:10;;;;;;;11.40;5.70;;;5.80;99.90;;;;;;5050757;28;20032;-76
2022/09/22 06:39:36;;;;;;;8.13;5.90;;;5.80;99.90;;;;;;5031113;28;20386;-76
2022/09/22 06:42:03;;;;;;;5.90;4.80;;;5.90;99.90;;;;;;5042704;28;20108;-76
2022/09/22 06:44:30;;;;;;;8.23;5.93;;;6.10;99.90;;;;;;5033130;28;20041;-70
2022/09/22 06:46:56;;;;;;;8.25;5.57;;;6.10;99.90;;;;;;5047011;28;20040;-77
2022/09/22 06:49:21;;;;;;;9.35;5.90;;;6.30;99.90;;;;;;5034634;28;20120;-76
2022/09/22 06:51:48;;;;;;;11.90;6.20;;;6.40;99.90;;;;;;5037146;28;20090;-76
2022/09/22 06:54:14;;;;;;;11.38;6.20;;;6.50;99.90;;;;;;5061855;28;20347;-75
2022/09/22 06:56:42;;;;;;;13.50;6.28;;;6.70;99.90;;;;;;5038116;28;20037;-74
2022/09/22 06:59:12;;;;;;;15.02;6.38;;;6.70;99.90;;;;;;5039033;28;20049;-74
2022/09/22 07:01:39;;;;;;;14.45;6.90;;;6.90;99.90;;;;;;5039268;28;20029;-71
2022/09/22 07:04:05;;;;;;;12.55;6.30;;;7.00;99.90;;;;;;5044275;28;20417;-75
2022/09/22 07:06:30;;;;;;;11.15;5.80;;;7.10;99.90;;;;;;5039314;28;20034;-70
2022/09/22 07:08:56;;;;;;;14.13;7.15;;;7.20;99.90;;;;;;5039837;28;20041;-75
2022/09/22 07:11:22;;;;;;;11.27;6.07;;;7.30;99.90;;;;;;5042188;28;20033;-75
2022/09/22 07:13:50;;;;;;;10.98;5.85;;;7.40;99.90;;;;;;5042818;28;20060;-72
2022/09/22 07:16:17;;;;;;;11.93;6.20;;;7.60;99.90;;;;;;5046875;28;20481;-75
2022/09/22 07:18:45;;;;;;;11.15;6.25;;;7.70;99.90;;;;;;5053238;28;20045;-74
2022/09/22 07:21:18;;;;;;;13.00;6.57;;;7.80;99.90;;;;;;5037451;28;20037;-75
2022/09/22 07:23:44;;;;;;;10.68;6.38;;;7.90;99.90;;;;;;5036745;28;20498;-73
2022/09/22 07:26:13;;;;;;;11.13;6.65;;;8.10;99.90;;;;;;5036700;28;20072;-75
2022/09/22 07:28:39;;;;;;;9.03;5.67;;;8.10;99.90;;;;;;5037827;28;20033;-76
2022/09/22 07:31:10;;;;;;;12.95;6.00;;;8.20;99.90;;;;;;5041037;28;20018;-75
2022/09/22 07:33:37;;;;;;;12.18;7.03;;;8.50;99.90;;;;;;5039554;28;20039;-76
2022/09/22 07:36:11;;;;;;;12.60;6.85;;;8.50;99.90;;;;;;5036945;28;20033;-76
2022/09/22 07:38:38;;;;;;;10.07;6.60;;;8.60;99.90;;;;;;5038681;28;20037;-77
2022/09/22 07:41:13;;;;;;;11.13;6.75;;;8.60;99.90;;;;;;5042173;28;20120;-76
2022/09/22 07:43:40;;;;;;;18.75;6.88;;;8.70;99.90;;;;;;5049326;28;20034;-75
2022/09/22 07:46:06;;;;;;;12.68;7.15;;;8.80;99.90;;;;;;5042845;28;20474;-75
2022/09/22 07:48:41;;;;;;;13.80;7.13;;;8.90;99.90;;;;;;5039145;28;20033;-72
2022/09/22 07:51:12;;;;;;;20.88;7.40;;;9.00;99.90;;;;;;5037303;28;20025;-77
2022/09/22 07:53:39;;;;;;;20.77;7.88;;;9.10;99.90;;;;;;5037800;28;20033;-76
2022/09/22 07:56:14;;;;;;;19.25;8.00;;;9.20;99.90;;;;;;5038600;28;20489;-77
2022/09/22 07:58:48;;;;;;;14.27;8.23;;;9.30;99.90;;;;;;5037424;28;20092;-76
2022/09/22 08:01:15;;;;;;;17.25;7.95;;;9.40;99.90;;;;;;5047787;28;20082;-76
2022/09/22 08:03:41;;;;;;;19.67;8.95;;;9.50;99.90;;;;;;5049099;28;20059;-77
2022/09/22 08:06:11;;;;;;;18.90;8.55;;;9.70;99.90;;;;;;5053644;28;20056;-76
2022/09/22 08:08:42;;;;;;;23.17;8.63;;;9.90;99.90;;;;;;5034829;28;20040;-76
2022/09/22 08:11:13;;;;;;;18.52;8.40;;;10.00;99.90;;;;;;5035541;28;20029;-76
2022/09/22 08:13:48;;;;;;;17.02;8.75;;;10.10;99.90;;;;;;5058848;28;20376;-75
2022/09/22 08:16:17;;;;;;;18.85;8.20;;;10.20;99.90;;;;;;5037078;28;20029;-71
2022/09/22 08:18:43;;;;;;;17.80;7.90;;;10.30;99.90;;;;;;5038281;28;20036;-75
2022/09/22 08:21:09;;;;;;;14.60;7.45;;;10.40;99.90;;;;;;5040591;28;20040;-77
2022/09/22 08:23:37;;;;;;;15.13;8.02;;;;;;;;;;5038311;28;20071;-71
2022/09/22 08:26:07;;;;;;;16.30;7.93;;;;;;;;;;5042980;28;20079;-77
2022/09/22 08:28:33;;;;;;;16.65;8.05;;;;;;;;;;5034982;28;20038;-70
2022/09/22 08:30:59;;;;;;;16.50;8.02;;;;;;;;;;5036750;28;20049;-77
2022/09/22 08:33:26;;;;;;;12.45;7.45;;;11.10;99.90;;;;;;5040794;28;20025;-76
2022/09/22 08:36:02;;;;;;;13.43;6.63;;;11.40;99.90;;;;;;5040614;28;20112;-77
2022/09/22 08:38:31;;;;;;;14.65;6.88;;;11.40;99.90;;;;;;5037560;28;20041;-75
2022/09/22 08:41:13;;;;;;;12.98;6.63;;;11.60;99.90;;;;;;5039306;28;20032;-74
2022/09/22 08:43:54;;;;;;;16.95;7.18;;;11.60;99.90;;;;;;5041812;28;20451;-75
2022/09/22 08:46:25;;;;;;;10.73;6.15;;;11.70;99.90;;;;;;5036656;28;20030;-76
2022/09/22 08:51:54;;;;;;;10.23;6.13;;;11.80;99.90;;;;;;5034465;28;20033;-76
2022/09/22 08:54:30;;;;;;;15.48;7.03;;;12.00;99.90;;;;;;5047486;28;20454;-78
2022/09/22 08:57:46;;;;;;;11.52;5.85;;;12.10;99.90;;;;;;5042624;28;20220;-78
2022/09/22 09:00:16;;;;;;;14.02;6.35;;;12.30;99.90;;;;;;5005019;28;20038;-77
2022/09/22 09:02:53;;;;;;;10.25;5.35;;;12.50;99.90;;;;;;5002793;28;20494;-76
2022/09/22 09:05:22;;;;;;;65.05;7.53;;;;;;;;;;5020891;28;20438;-76
2022/09/22 09:08:16;;;;;;;14.80;4.85;;;;;;;;;;5043866;28;20068;-76
2022/09/22 09:11:15;;;;;;;9.98;5.15;;;13.10;99.90;;;;;;5046851;28;20096;-75
2022/09/22 09:13:41;;;;;;;8.02;4.60;;;13.10;99.90;;;;;;5034268;28;20021;-76
2022/09/22 09:16:44;;;;;;;15.55;5.32;;;13.20;99.90;;;;;;5039888;28;20027;-73
2022/09/22 09:19:21;;;;;;;12.00;5.80;;;13.30;99.90;;;;;;5038838;28;20489;-73
2022/09/22 09:21:53;;;;;;;7.70;4.60;;;13.40;99.90;;;;;;5050827;28;20466;-76
2022/09/22 09:24:29;;;;;;;11.20;4.95;;;13.60;99.90;;;;;;5033179;28;20029;-76
2022/09/22 09:26:59;;;;;;;8.85;4.43;;;13.70;99.90;;;;;;5040404;28;20171;-76
2022/09/22 09:29:32;;;;;;;5.07;2.92;;;13.80;99.90;;;;;;5035840;28;20029;-76
2022/09/22 09:32:02;;;;;;;6.70;2.53;;;14.00;99.90;;;;;;5032203;28;20053;-75
2022/09/22 09:34:29;;;;;;;9.05;3.58;;;14.10;99.90;;;;;;5039459;28;20029;-76
2022/09/22 09:37:06;;;;;;;5.57;3.38;;;14.30;99.90;;;;;;5039102;28;20069;-75
2022/09/22 09:39:37;;;;;;;9.38;3.20;;;14.40;99.90;;;;;;5032606;28;20419;-76
2022/09/22 09:42:24;;;;;;;4.75;2.10;;;14.60;99.90;;;;;;5036622;28;20132;-75
2022/09/22 09:44:52;;;;;;;3.53;1.40;;;14.70;99.90;;;;;;5037211;28;20091;-77
2022/09/22 09:47:46;;;;;;;4.63;1.65;;;14.70;99.90;;;;;;5034220;28;20029;-77
2022/09/22 09:50:12;;;;;;;4.18;1.48;;;14.90;99.90;;;;;;5034983;28;20061;-76
2022/09/22 09:52:38;;;;;;;3.38;1.50;;;15.00;99.90;;;;;;5033503;28;20068;-70
2022/09/22 09:55:26;;;;;;;3.10;1.88;;;15.20;99.90;;;;;;5049863;28;20032;-75
2022/09/22 09:58:01;;;;;;;4.22;1.50;;;15.40;99.90;;;;;;5033233;28;20052;-77
2022/09/22 10:00:33;;;;;;;2.72;1.73;;;15.40;99.90;;;;;;5035529;28;20041;-78
2022/09/22 10:03:01;;;;;;;3.45;2.00;;;15.50;99.90;;;;;;5043049;28;20070;-76
2022/09/22 10:05:28;;;;;;;4.13;2.13;;;15.60;99.70;;;;;;5050654;28;20033;-76
2022/09/22 10:08:01;;;;;;;5.30;2.17;;;;;;;;;;5043789;28;20087;-76
2022/09/22 10:10:40;;;;;;;6.53;1.98;;;15.90;99.10;;;;;;5039309;28;20081;-76
2022/09/22 10:13:05;;;;;;;11.25;2.30;;;15.90;98.70;;;;;;5050349;28;20047;-74
2022/09/22 10:15:39;;;;;;;3.67;2.00;;;15.90;99.00;;;;;;5035228;28;20163;-77
2022/09/22 10:18:23;;;;;;;4.13;2.00;;;16.00;98.70;;;;;;5032127;28;20025;-78
2022/09/22 10:21:14;;;;;;;4.65;2.00;;;16.00;98.60;;;;;;5035847;28;20107;-75
2022/09/22 10:23:41;;;;;;;3.42;1.95;;;15.90;98.40;;;;;;5037025;28;20539;-71
2022/09/22 10:26:18;;;;;;;4.28;1.77;;;16.00;98.50;;;;;;5043249;28;20028;-78
2022/09/22 10:28:49;;;;;;;1.60;1.38;;;16.10;97.90;;;;;;5033295;28;20120;-77
2022/09/22 10:31:25;;;;;;;1.55;0.98;;;16.20;96.80;;;;;;5042048;28;20385;-78
2022/09/22 10:33:56;;;;;;;1.13;0.98;;;16.20;97.20;;;;;;5035084;28;20082;-76
2022/09/22 10:36:24;;;;;;;1.45;1.08;;;16.30;96.80;;;;;;5050991;28;20425;-79
2022/09/22 10:38:52;;;;;;;3.13;1.05;;;16.50;96.30;;;;;;5044818;28;20041;-78
2022/09/22 10:41:26;;;;;;;1.38;1.27;;;16.60;97.00;;;;;;5043687;28;20485;-78
2022/09/22 10:43:58;;;;;;;1.23;0.85;;;16.80;96.00;;;;;;5033683;28;20025;-78
2022/09/22 10:46:39;;;;;;;2.03;1.20;;;17.10;95.00;;;;;;5034287;28;20087;-77
2022/09/22 10:49:16;;;;;;;1.20;0.82;;;17.10;94.80;;;;;;5052544;28;20108;-79
2022/09/22 10:52:06;;;;;;;1.20;1.00;;;17.10;94.40;;;;;;5048549;28;20023;-73
2022/09/22 10:55:00;;;;;;;1.73;1.13;;;17.20;94.60;;;;;;5040393;28;20032;-79
2022/09/22 10:57:44;;;;;;;1.45;1.00;;;17.30;94.30;;;;;;5043341;28;20087;-74
2022/09/22 11:00:16;;;;;;;1.00;1.00;;;17.60;93.80;;;;;;5036355;28;20033;-76
2022/09/22 11:02:50;;;;;;;1.25;0.70;;;17.80;92.50;;;;;;5035126;28;20486;-73
2022/09/22 11:14:30;;;;;;;1.25;1.00;;;17.70;91.80;;;;;;5045769;28;20548;-76
2022/09/22 11:17:17;;;;;;;2.38;0.60;;;17.80;91.30;;;;;;5054661;28;20125;-75
2022/09/22 11:19:46;;;;;;;0.80;0.60;;;18.10;90.20;;;;;;5040792;28;20057;-71
2022/09/22 11:22:21;;;;;;;1.35;0.80;;;18.20;89.20;;;;;;5037616;28;20478;-76
2022/09/22 11:25:22;;;;;;;2.72;0.90;;;18.30;89.20;;;;;;5034426;28;20029;-74
2022/09/22 11:28:37;;;;;;;1.25;0.80;;;18.70;86.90;;;;;;5040488;28;20406;-82
2022/09/22 11:31:04;;;;;;;4.13;0.82;;;18.90;85.60;;;;;;5021279;28;20044;-79
2022/09/22 11:33:52;;;;;;;0.77;0.63;;;18.90;84.90;;;;;;5050373;28;20029;-80
2022/09/22 11:36:27;;;;;;;0.85;0.73;;;19.00;82.90;;;;;;5047838;28;20052;-82
2022/09/22 11:39:06;;;;;;;2.60;0.60;;;19.20;81.30;;;;;;5041972;28;20178;-79
2022/09/22 11:41:40;;;;;;;0.95;0.70;;;19.30;80.20;;;;;;5046777;28;20033;-80
2022/09/22 11:44:25;;;;;;;0.70;0.70;;;19.20;80.30;;;;;;5053770;28;20108;-80
2022/09/22 11:47:02;;;;;;;1.83;1.20;;;19.30;79.70;;;;;;5046280;28;20675;-81
2022/09/22 11:49:51;;;;;;;1.30;0.80;;;19.40;80.20;;;;;;5054858;28;20080;-81
2022/09/22 11:52:29;;;;;;;2.33;0.60;;;19.70;77.80;;;;;;5016895;28;20045;-82
2022/09/22 11:55:24;;;;;;;2.28;0.90;;;20.00;76.80;;;;;;5049467;28;20056;-81
2022/09/22 11:57:54;;;;;;;1.25;0.80;;;;;;;;;;5043989;28;20048;-81
2022/09/22 12:00:20;;;;;;;0.77;0.77;;;20.60;99.90;;;;;;5038022;28;20029;-81
2022/09/22 12:02:58;;;;;;;9.07;1.50;;;20.80;77.20;;;;;;5037702;28;20056;-79
2022/09/22 12:05:27;;;;;;;0.70;0.70;;;21.50;87.60;;;;;;5041107;28;20037;-79
2022/09/22 12:08:00;;;;;;;1.92;0.80;;;21.50;84.70;;;;;;5041240;28;20083;-80
2022/09/22 12:10:37;;;;;;;1.67;0.93;;;21.50;72.30;;;;;;5037131;28;20029;-76
2022/09/22 12:13:07;;;;;;;1.52;0.80;;;;;;;;;;5042170;28;20029;-80
2022/09/22 12:15:41;;;;;;;1.13;0.70;;;;;;;;;;5037052;28;20036;-78
2022/09/22 12:18:18;;;;;;;1.63;0.88;;;21.90;80.80;;;;;;5043541;28;20097;-80
2022/09/22 12:20:59;;;;;;;0.70;0.70;;;21.90;71.50;;;;;;5044880;28;20495;-74
2022/09/22 12:23:43;;;;;;;1.90;0.93;;;22.00;72.90;;;;;;5048652;28;20029;-80
2022/09/22 12:26:11;;;;;;;2.08;0.63;;;22.10;68.10;;;;;;5035923;28;20040;-80
2022/09/22 12:28:41;;;;;;;0.85;0.70;;;22.30;67.60;;;;;;5041580;28;20026;-79
2022/09/22 12:31:13;;;;;;;0.77;0.77;;;22.70;92.20;;;;;;5037031;28;20462;-80
2022/09/22 12:33:46;;;;;;;2.10;0.80;;;22.80;84.80;;;;;;5041712;28;20403;-79
2022/09/22 12:36:13;;;;;;;1.17;0.90;;;22.80;78.90;;;;;;5044417;28;20446;-81
2022/09/22 12:38:39;;;;;;;2.15;1.10;;;23.20;67.10;;;;;;5038636;28;20556;-80
2022/09/22 12:41:06;;;;;;;1.05;0.80;;;23.50;64.60;;;;;;5041627;28;20029;-80
2022/09/22 12:43:33;;;;;;;1.30;0.90;;;23.90;63.80;;;;;;5040435;28;20029;-78
2022/09/22 12:46:04;;;;;;;1.35;0.75;;;24.20;63.50;;;;;;5044143;28;20025;-76
2022/09/22 12:48:34;;;;;;;0.60;0.60;;;24.40;62.90;;;;;;5041651;28;20382;-79
2022/09/22 12:51:30;;;;;;;0.65;0.65;;;24.10;62.50;;;;;;5043892;28;20381;-79
2022/09/22 12:54:20;;;;;;;0.60;0.60;;;24.10;62.40;;;;;;5048618;28;20064;-80
2022/09/22 12:57:01;;;;;;;0.85;0.70;;;24.00;60.70;;;;;;5035815;28;20033;-76
2022/09/22 12:59:36;;;;;;;0.88;0.65;;;23.60;60.50;;;;;;5049108;28;20032;-78
2022/09/22 13:02:17;;;;;;;3.03;0.80;;;23.40;60.10;;;;;;5047753;28;20052;-81
2022/09/22 13:04:48;;;;;;;0.80;0.80;;;23.10;61.10;;;;;;5035777;28;20084;-73
2022/09/22 13:07:36;;;;;;;1.23;0.80;;;22.90;61.50;;;;;;5049216;28;20033;-81
2022/09/22 13:10:20;;;;;;;0.88;0.60;;;22.70;61.20;;;;;;5040227;28;20659;-80
2022/09/22 13:15:50;;;;;;;2.05;1.25;;;22.50;62.30;;;;;;5039039;28;20129;-79
2022/09/22 13:18:33;;;;;;;2.92;0.75;;;22.60;62.20;;;;;;5019088;28;20041;-81
2022/09/22 13:21:11;;;;;;;2.10;0.70;;;22.60;62.20;;;;;;5047202;28;20045;-78
2022/09/22 13:23:57;;;;;;;0.68;0.55;;;22.80;62.80;;;;;;5056833;28;20049;-80
2022/09/22 13:26:37;;;;;;;0.60;0.60;;;22.80;61.60;;;;;;5040231;28;20411;-79
2022/09/22 13:29:16;;;;;;;1.02;0.70;;;22.70;61.30;;;;;;5033946;28;20036;-80
2022/09/22 13:31:44;;;;;;;1.15;0.60;;;22.70;61.90;;;;;;5036044;28;20064;-74
2022/09/22 13:34:19;;;;;;;0.82;0.70;;;22.50;61.50;;;;;;5034202;28;20075;-80
2022/09/22 13:36:46;;;;;;;1.27;0.70;;;22.20;61.70;;;;;;5038771;28;20040;-74
2022/09/22 13:39:16;;;;;;;0.90;0.60;;;22.10;61.70;;;;;;5034245;28;20458;-83
2022/09/22 13:41:48;;;;;;;1.13;0.75;;;21.90;61.60;;;;;;5040634;28;20032;-75
2022/09/22 13:44:19;;;;;;;0.73;0.63;;;21.90;62.30;;;;;;5045060;28;20079;-79
2022/09/22 13:46:47;;;;;;;2.38;0.80;;;22.00;62.50;;;;;;5037471;28;20029;-73
2022/09/22 13:49:26;;;;;;;0.82;0.50;;;21.90;62.60;;;;;;5039324;28;20049;-78
2022/09/22 13:52:02;;;;;;;1.10;0.88;;;22.00;62.70;;;;;;5048141;28;20016;-79
2022/09/22 13:54:31;;;;;;;3.30;0.70;;;21.80;61.70;;;;;;5035934;28;20055;-80